Time;durP1;ratioP1;P1;durP2;ratioP2;P2;SDS_P1;SDS_P2;PMS_P1;PMS_P2;Temp;Humidity;BMP_temperature;BMP_pressure;BME280_temperature;BME280_humidity;BME280_pressure;Samples;Min_cycle;Max_cycle;Signal;HPM_P1;HPM_P2
2023/07/19 00:01:47;;;;;;;3.80;1.90;;;;;;;10.57;71.19;99446.63;106667;1270;24280;-44
2023/07/19 00:04:16;;;;;;;5.90;2.50;;;;;;;10.52;71.32;99446.85;106532;1270;99313;-47
2023/07/19 00:06:45;;;;;;;5.40;3.00;;;;;;;10.49;71.44;99443.02;106793;1269;22530;-43
2023/07/19 00:09:13;;;;;;;6.60;2.40;;;;;;;10.49;71.76;99435.57;106933;1270;22972;-45
2023/07/19 00:11:43;;;;;;;6.80;2.40;;;;;;;10.50;71.85;99431.14;106670;1270;99907;-45
2023/07/19 00:14:12;;;;;;;3.60;2.30;;;;;;;10.49;71.75;99431.90;106818;1270;22618;-45
2023/07/19 00:16:40;;;;;;;4.50;2.00;;;;;;;10.45;71.78;99425.81;106597;1273;99112;-44
2023/07/19 00:19:09;;;;;;;3.90;2.50;;;;;;;10.45;71.95;99421.36;106676;1269;25371;-44
2023/07/19 00:21:49;;;;;;;3.10;2.00;;;;;;;10.39;71.89;99419.52;106991;1269;22551;-45
2023/07/19 00:24:18;;;;;;;4.70;2.60;;;;;;;10.35;71.95;99416.12;106736;1270;99019;-45
2023/07/19 00:26:49;;;;;;;3.60;2.30;;;;;;;10.30;72.06;99408.53;106884;1273;24301;-45
2023/07/19 00:29:18;;;;;;;9.50;2.60;;;;;;;10.23;72.17;99406.39;106704;1269;99222;-48
2023/07/19 00:31:47;;;;;;;4.40;2.40;;;;;;;10.19;72.32;99406.44;106856;1273;22769;-44
2023/07/19 00:34:16;;;;;;;3.00;2.20;;;;;;;10.18;72.50;99401.79;106607;1270;101326;-45
2023/07/19 00:36:45;;;;;;;5.90;2.30;;;;;;;10.18;72.60;99399.90;106946;1269;25464;-44
2023/07/19 00:39:14;;;;;;;5.50;2.40;;;;;;;10.18;72.77;99400.55;106854;1269;24037;-45
2023/07/19 00:41:42;;;;;;;5.30;2.30;;;;;;;10.21;72.96;99399.92;106752;1269;99130;-44
2023/07/19 00:44:11;;;;;;;7.80;2.60;;;;;;;10.26;73.07;99395.13;106810;1269;24240;-44
2023/07/19 00:46:40;;;;;;;5.10;2.80;;;;;;;10.32;73.24;99391.54;106753;1270;99741;-44
2023/07/19 00:49:10;;;;;;;5.90;2.60;;;;;;;10.36;73.13;99385.23;106761;1270;23904;-45
2023/07/19 00:51:40;;;;;;;5.50;2.80;;;;;;;10.37;73.10;99380.52;106865;1269;22611;-44
2023/07/19 00:54:09;;;;;;;6.00;2.70;;;;;;;10.35;73.17;99377.80;106836;1269;99150;-45
2023/07/19 00:56:41;;;;;;;5.80;2.30;;;;;;;10.34;73.27;99377.55;106794;1269;25376;-44
2023/07/19 00:59:12;;;;;;;4.70;2.20;;;;;;;10.31;73.34;99371.27;106727;1269;99199;-44
2023/07/19 01:01:44;;;;;;;3.70;2.40;;;;;;;10.27;73.44;99368.83;106974;1269;22533;-45
2023/07/19 01:04:13;;;;;;;3.90;2.40;;;;;;;10.25;73.61;99364.90;106783;1269;100520;-45
2023/07/19 01:06:43;;;;;;;4.90;2.50;;;;;;;10.27;73.74;99364.31;106687;1269;22526;-45
2023/07/19 01:09:13;;;;;;;3.50;2.00;;;;;;;10.32;74.07;99361.77;106775;1269;26509;-44
2023/07/19 01:11:42;;;;;;;9.60;2.30;;;;;;;10.39;74.19;99358.98;106603;1270;99241;-45
2023/07/19 01:14:12;;;;;;;2.70;1.90;;;;;;;10.44;74.12;99353.13;106843;1270;22547;-45
2023/07/19 01:16:41;;;;;;;5.20;2.50;;;;;;;10.47;74.08;99349.31;106929;1269;99151;-44
2023/07/19 01:19:10;;;;;;;4.80;2.50;;;;;;;10.52;74.20;99349.98;106777;1263;24061;-46
2023/07/19 01:21:38;;;;;;;4.80;2.30;;;;;;;10.56;74.32;99351.16;106840;1269;23261;-44
2023/07/19 01:24:07;;;;;;;3.80;2.20;;;;;;;10.61;74.38;99347.93;106623;1271;99182;-45
2023/07/19 01:26:37;;;;;;;2.80;2.00;;;;;;;10.62;74.18;99348.39;106842;1269;22543;-44
2023/07/19 01:29:05;;;;;;;5.80;2.00;;;;;;;10.63;74.26;99348.68;106776;1267;99887;-44
2023/07/19 01:31:34;;;;;;;6.00;1.90;;;;;;;10.65;74.40;99343.91;106583;1274;22586;-44
2023/07/19 01:34:03;;;;;;;5.40;2.30;;;;;;;10.66;74.48;99342.59;106728;1270;99320;-44
2023/07/19 01:36:32;;;;;;;5.20;3.00;;;;;;;10.68;74.52;99340.41;106809;1270;22594;-45
2023/07/19 01:39:00;;;;;;;8.60;3.10;;;;;;;10.70;74.62;99340.14;106699;1270;24241;-44
2023/07/19 01:41:29;;;;;;;3.80;2.20;;;;;;;10.73;74.76;99336.67;106779;1269;99099;-46
2023/07/19 01:43:59;;;;;;;6.30;2.80;;;;;;;10.77;74.75;99336.44;106854;1269;22523;-43
2023/07/19 01:46:28;;;;;;;4.40;2.50;;;;;;;10.81;74.77;99329.98;106873;1269;99352;-44
2023/07/19 01:49:06;;;;;;;5.30;3.20;;;;;;;10.83;74.96;99328.64;106900;1255;23789;-45
2023/07/19 01:51:34;;;;;;;5.80;2.40;;;;;;;10.87;74.86;99322.33;106847;1269;25373;-45
2023/07/19 01:54:03;;;;;;;4.00;2.90;;;;;;;10.89;74.86;99325.86;106747;1269;99408;-45
2023/07/19 01:56:33;;;;;;;5.40;1.90;;;;;;;10.92;74.87;99323.80;106570;1269;22496;-46
2023/07/19 01:59:02;;;;;;;3.70;1.50;;;;;;;10.91;74.95;99317.55;106786;1271;99357;-45
2023/07/19 02:01:30;;;;;;;5.10;1.60;;;;;;;10.92;75.07;99320.42;106595;1273;25349;-44
2023/07/19 02:04:00;;;;;;;2.70;1.60;;;;;;;10.93;75.02;99318.52;106807;1270;99854;-45
2023/07/19 02:06:29;;;;;;;5.30;1.80;;;;;;;10.93;75.15;99316.23;106796;1270;22515;-43
2023/07/19 02:08:57;;;;;;;4.70;2.00;;;;;;;10.95;75.27;99310.70;106583;1273;22546;-43
2023/07/19 02:11:29;;;;;;;2.60;1.60;;;;;;;11.00;75.40;99309.23;106774;1268;99086;-44
2023/07/19 02:14:02;;;;;;;5.80;1.60;;;;;;;11.02;75.46;99308.62;106778;1271;25535;-44
2023/07/19 02:16:31;;;;;;;4.40;1.40;;;;;;;11.06;75.54;99307.17;106870;1272;99799;-45
2023/07/19 02:19:03;;;;;;;2.40;1.40;;;;;;;11.12;75.66;99306.64;106809;1253;24369;-47
2023/07/19 02:21:32;;;;;;;4.30;1.30;;;;;;;11.14;75.55;99305.00;106721;1272;22523;-48
2023/07/19 02:24:02;;;;;;;3.60;1.90;;;;;;;11.15;75.56;99300.04;106835;1272;99152;-45
2023/07/19 02:26:30;;;;;;;4.10;1.50;;;;;;;11.16;75.56;99300.68;106872;1270;25404;-46
2023/07/19 02:28:59;;;;;;;2.00;1.50;;;;;;;11.14;75.66;99300.96;106589;1273;99195;-45
2023/07/19 02:31:28;;;;;;;2.20;1.40;;;;;;;11.14;75.95;99296.64;106616;1269;22695;-43
2023/07/19 02:33:57;;;;;;;4.50;2.10;;;;;;;11.13;75.90;99289.88;106748;1272;99393;-44
2023/07/19 02:36:26;;;;;;;3.40;1.60;;;;;;;11.11;76.03;99288.08;106625;1273;22536;-44
2023/07/19 02:38:55;;;;;;;4.30;1.50;;;;;;;11.11;76.09;99286.17;106656;1269;25423;-44
2023/07/19 02:41:24;;;;;;;1.80;1.20;;;;;;;11.12;76.19;99288.73;106612;1270;99104;-47
2023/07/19 02:43:52;;;;;;;3.50;1.80;;;;;;;11.11;76.23;99289.28;106722;1272;22598;-48
2023/07/19 02:46:21;;;;;;;3.10;1.30;;;;;;;11.12;76.41;99287.87;106649;1271;99448;-46
2023/07/19 02:48:50;;;;;;;2.30;1.30;;;;;;;11.11;76.46;99282.83;106720;1272;25373;-43
2023/07/19 02:51:19;;;;;;;2.50;1.50;;;;;;;11.12;76.56;99287.69;107859;1270;23142;-46
2023/07/19 02:53:49;;;;;;;2.30;1.30;;;;;;;11.12;76.64;99288.38;106513;1270;99102;-43
2023/07/19 02:56:18;;;;;;;5.30;1.80;;;;;;;11.16;76.97;99285.70;106774;1270;22650;-44
2023/07/19 02:58:48;;;;;;;2.40;1.30;;;;;;;11.24;77.05;99284.54;106655;1277;99153;-46
2023/07/19 03:01:17;;;;;;;3.00;1.50;;;;;;;11.33;77.14;99283.16;106641;1273;22585;-45
2023/07/19 03:03:46;;;;;;;1.70;1.20;;;;;;;11.41;77.22;99283.91;106602;1261;25047;-45
2023/07/19 03:06:15;;;;;;;3.20;1.80;;;;;;;11.51;77.31;99283.36;106590;1277;99520;-46
2023/07/19 03:08:44;;;;;;;6.30;1.50;;;;;;;11.58;77.33;99275.25;106619;1276;23529;-44
2023/07/19 03:11:13;;;;;;;5.80;1.40;;;;;;;11.65;77.38;99281.29;106601;1270;100242;-43
2023/07/19 03:13:42;;;;;;;2.40;1.30;;;;;;;11.73;77.50;99281.86;106643;1274;23914;-44
2023/07/19 03:16:12;;;;;;;5.20;1.60;;;;;;;11.82;77.50;99282.89;106641;1269;99737;-44
2023/07/19 03:18:41;;;;;;;3.20;1.60;;;;;;;11.93;77.57;99281.48;106692;1270;25327;-45
2023/07/19 03:21:10;;;;;;;4.10;1.70;;;;;;;12.00;77.57;99277.00;106871;1269;22529;-46
2023/07/19 03:23:39;;;;;;;2.00;1.20;;;;;;;12.08;77.62;99283.66;106512;1275;99700;-43
2023/07/19 03:26:09;;;;;;;2.50;1.50;;;;;;;12.17;77.81;99278.40;107060;1272;25272;-45
2023/07/19 03:28:39;;;;;;;5.20;1.90;;;;;;;12.28;77.91;99277.00;106661;1271;99378;-44
2023/07/19 03:31:12;;;;;;;5.40;1.60;;;;;;;12.42;78.01;99281.41;106738;1277;22640;-44
2023/07/19 03:33:41;;;;;;;4.60;1.40;;;;;;;12.55;77.98;99286.55;106968;1276;25416;-45
2023/07/19 03:36:10;;;;;;;8.10;1.40;;;;;;;12.71;78.36;99288.68;106597;1270;98916;-47
2023/07/19 03:38:40;;;;;;;3.00;1.40;;;;;;;12.89;78.47;99280.59;106732;1271;24031;-44
2023/07/19 03:41:09;;;;;;;5.30;1.60;;;;;;;13.05;78.48;99282.52;106857;1270;99070;-44
2023/07/19 03:43:38;;;;;;;4.00;1.20;;;;;;;13.22;78.52;99284.54;106605;1276;22516;-44
2023/07/19 03:46:07;;;;;;;4.70;1.60;;;;;;;13.38;78.52;99287.39;106509;1271;99282;-45
2023/07/19 03:48:37;;;;;;;5.60;1.30;;;;;;;13.52;78.68;99285.02;106921;1270;22520;-44
2023/07/19 03:51:06;;;;;;;4.90;1.40;;;;;;;13.67;78.65;99285.67;106809;1269;23005;-44
2023/07/19 03:53:35;;;;;;;4.90;1.60;;;;;;;13.80;78.72;99286.01;107591;1269;99162;-46
2023/07/19 03:56:04;;;;;;;3.70;1.20;;;;;;;13.93;78.82;99285.65;106585;1269;22540;-44
2023/07/19 03:58:33;;;;;;;2.30;1.20;;;;;;;14.05;78.84;99283.58;106614;1273;99329;-44
2023/07/19 04:01:03;;;;;;;4.50;1.70;;;;;;;14.16;78.62;99282.48;106629;1269;24241;-46
2023/07/19 04:03:33;;;;;;;2.50;1.30;;;;;;;14.19;78.22;99284.92;106818;1269;23675;-45
2023/07/19 04:06:02;;;;;;;2.50;1.20;;;;;;;14.16;78.83;99287.77;106966;1269;99289;-46
2023/07/19 04:08:31;;;;;;;3.60;1.30;;;;;;;14.15;79.48;99286.58;106739;1271;25250;-44
2023/07/19 04:11:01;;;;;;;2.20;1.00;;;;;;;14.18;79.84;99284.31;106569;1269;99169;-44
2023/07/19 04:13:30;;;;;;;5.10;1.30;;;;;;;14.20;79.43;99284.33;106855;1269;24269;-44
2023/07/19 04:15:59;;;;;;;2.80;1.30;;;;;;;14.23;79.19;99284.60;106597;1269;99738;-47
2023/07/19 04:18:28;;;;;;;5.60;2.40;;;;;;;14.28;79.12;99286.58;106743;1276;22523;-45
2023/07/19 04:20:57;;;;;;;3.30;1.40;;;;;;;14.28;78.87;99287.05;106763;1265;22618;-44
2023/07/19 04:23:26;;;;;;;5.60;1.50;;;;;;;14.29;78.80;99283.36;106702;1275;99145;-45
2023/07/19 04:25:55;;;;;;;5.10;1.70;;;;;;;14.29;78.72;99283.13;106689;1269;24255;-43
2023/07/19 04:28:24;;;;;;;1.80;1.10;;;;;;;14.30;78.64;99279.23;106733;1269;100897;-44
2023/07/19 04:30:52;;;;;;;2.40;1.10;;;;;;;14.30;78.61;99278.52;106609;1269;24391;-43
2023/07/19 04:33:21;;;;;;;4.50;1.30;;;;;;;14.32;78.76;99278.35;106963;1269;22511;-45
2023/07/19 04:35:50;;;;;;;2.30;1.10;;;;;;;14.38;78.82;99278.15;106775;1269;99323;-46
2023/07/19 04:38:19;;;;;;;1.70;1.00;;;;;;;14.44;78.78;99276.48;107186;1269;22580;-44
2023/07/19 04:40:48;;;;;;;5.60;2.30;;;;;;;14.50;78.68;99282.34;106881;1269;99147;-45
2023/07/19 04:43:18;;;;;;;1.80;1.20;;;;;;;14.52;78.56;99280.45;107010;1270;22551;-46
2023/07/19 04:45:47;;;;;;;2.80;1.40;;;;;;;14.51;78.26;99275.48;107417;1265;25203;-43
2023/07/19 04:48:20;;;;;;;2.40;1.20;;;;;;;14.50;78.55;99273.62;106760;1270;24112;-45
2023/07/19 04:50:56;;;;;;;2.00;1.10;;;;;;;14.54;78.68;99273.52;106995;1271;24262;-44
2023/07/19 04:53:27;;;;;;;2.30;1.10;;;;;;;14.56;78.43;99274.29;107037;1269;99133;-47
2023/07/19 04:55:56;;;;;;;2.10;0.90;;;;;;;14.53;78.45;99277.25;106666;1275;22635;-48
2023/07/19 04:58:25;;;;;;;1.90;1.30;;;;;;;14.56;78.69;99270.98;107120;1265;99882;-45
2023/07/19 05:00:54;;;;;;;3.30;1.40;;;;;;;14.58;78.68;99272.80;106865;1273;26735;-45
2023/07/19 05:03:23;;;;;;;2.50;1.00;;;;;;;14.59;78.56;99273.02;106864;1269;22565;-44
2023/07/19 05:05:55;;;;;;;1.30;1.10;;;;;;;14.60;78.53;99271.56;106841;1269;99201;-44
2023/07/19 05:08:24;;;;;;;2.90;1.20;;;;;;;14.61;78.73;99273.60;107080;1272;22663;-43
2023/07/19 05:10:53;;;;;;;2.80;1.30;;;;;;;14.61;78.75;99272.55;107023;1269;99367;-47
2023/07/19 05:13:23;;;;;;;5.00;1.30;;;;;;;14.60;78.77;99268.23;106934;1269;24225;-46
2023/07/19 05:16:05;;;;;;;1.80;1.00;;;;;;;14.61;78.94;99267.83;107235;1270;24479;-45
2023/07/19 05:18:34;;;;;;;3.50;1.20;;;;;;;14.64;79.04;99266.53;106787;1269;22666;-48
2023/07/19 05:21:03;;;;;;;4.80;1.70;;;;;;;14.68;79.10;99263.10;106801;1270;25220;-44
2023/07/19 05:23:32;;;;;;;4.30;1.20;;;;;;;14.69;79.12;99265.34;106893;1276;99130;-46
2023/07/19 05:26:01;;;;;;;3.20;1.40;;;;;;;14.73;79.30;99263.65;107045;1269;25361;-45
2023/07/19 05:28:30;;;;;;;3.80;1.20;;;;;;;14.78;79.36;99261.67;106674;1270;99400;-44
2023/07/19 05:31:03;;;;;;;3.30;1.70;;;;;;;14.84;79.50;99264.09;106934;1269;25450;-45
2023/07/19 05:33:33;;;;;;;3.40;1.40;;;;;;;14.91;79.67;99261.30;106739;1271;26625;-45
2023/07/19 05:36:01;;;;;;;2.20;1.30;;;;;;;14.97;79.75;99256.77;106744;1274;99222;-45
2023/07/19 05:38:32;;;;;;;4.70;1.50;;;;;;;15.10;79.96;99258.88;106911;1270;22568;-43
2023/07/19 05:41:03;;;;;;;3.30;1.30;;;;;;;15.23;80.02;99259.46;106792;1271;99170;-44
2023/07/19 05:43:32;;;;;;;2.70;1.60;;;;;;;15.35;80.01;99252.21;106785;1271;22584;-44
2023/07/19 05:46:05;;;;;;;2.30;1.30;;;;;;;15.47;80.03;99250.52;106799;1271;23916;-44
2023/07/19 05:48:35;;;;;;;3.40;1.50;;;;;;;15.65;80.24;99249.83;106654;1269;22528;-44
2023/07/19 05:51:05;;;;;;;2.60;1.20;;;;;;;15.92;80.31;99249.92;107112;1269;22527;-44
2023/07/19 05:53:42;;;;;;;3.50;1.40;;;;;;;16.27;80.08;99243.83;106990;1266;99126;-45
2023/07/19 05:56:10;;;;;;;2.90;1.00;;;;;;;16.57;79.98;99241.66;106695;1274;24241;-45
2023/07/19 05:58:47;;;;;;;1.80;1.10;;;;;;;16.93;80.07;99240.02;106748;1269;99360;-44
2023/07/19 06:01:17;;;;;;;2.80;1.40;;;;;;;17.20;79.46;99245.05;106795;1269;22530;-43
2023/07/19 06:03:47;;;;;;;4.20;1.40;;;;;;;17.33;79.06;99238.67;106868;1270;23006;-44
2023/07/19 06:06:16;;;;;;;3.90;1.30;;;;;;;17.46;79.22;99235.31;106636;1269;99369;-45
2023/07/19 06:08:45;;;;;;;3.80;1.30;;;;;;;17.59;79.04;99234.89;106798;1269;25477;-46
2023/07/19 06:11:14;;;;;;;4.90;1.40;;;;;;;17.74;79.22;99232.98;106730;1269;100154;-43
2023/07/19 06:13:43;;;;;;;4.70;1.30;;;;;;;17.97;79.12;99229.78;106984;1269;23949;-45
2023/07/19 06:16:11;;;;;;;3.10;1.20;;;;;;;18.23;78.92;99230.02;106860;1268;99445;-44
2023/07/19 06:18:40;;;;;;;1.60;1.00;;;;;;;18.38;78.48;99227.86;106847;1268;25139;-45
2023/07/19 06:21:09;;;;;;;5.80;1.60;;;;;;;18.58;78.37;99226.14;106624;1269;24209;-44
2023/07/19 06:23:38;;;;;;;1.70;1.00;;;;;;;18.67;77.99;99227.27;106646;1269;99736;-44
2023/07/19 06:26:07;;;;;;;1.60;1.10;;;;;;;18.72;78.09;99223.62;106877;1269;25307;-45
2023/07/19 06:28:35;;;;;;;2.30;1.10;;;;;;;18.90;78.27;99226.09;106659;1271;99826;-47
2023/07/19 06:31:04;;;;;;;2.20;1.10;;;;;;;18.95;77.53;99227.23;106842;1269;25358;-44
2023/07/19 06:33:32;;;;;;;2.40;1.20;;;;;;;19.01;77.51;99228.29;106732;1269;25567;-46
2023/07/19 06:36:01;;;;;;;1.60;1.00;;;;;;;19.03;77.44;99226.35;106726;1269;99641;-44
2023/07/19 06:38:30;;;;;;;3.20;1.10;;;;;;;19.14;77.53;99228.55;106778;1269;22566;-45
2023/07/19 06:41:03;;;;;;;5.40;1.20;;;;;;;19.31;77.59;99223.84;106834;1268;99296;-44
2023/07/19 06:43:32;;;;;;;1.80;1.00;;;;;;;19.53;77.46;99227.10;107170;1269;25297;-46
2023/07/19 06:46:01;;;;;;;1.10;0.70;;;;;;;19.58;76.74;99225.56;107312;1275;23550;-43
2023/07/19 06:48:30;;;;;;;1.30;0.60;;;;;;;19.46;76.33;99221.91;106839;1269;25355;-43
2023/07/19 06:51:36;;;;;;;1.80;0.90;;;;;;;19.33;76.30;99217.73;107237;1269;22521;-46
2023/07/19 06:54:05;;;;;;;4.90;1.30;;;;;;;19.25;76.11;99218.35;106993;1269;99196;-45
2023/07/19 06:56:43;;;;;;;1.30;0.90;;;;;;;19.20;75.74;99215.45;107323;1269;22580;-42
2023/07/19 06:59:13;;;;;;;2.80;1.30;;;;;;;19.11;75.77;99219.25;106759;1259;99591;-43
2023/07/19 07:01:42;;;;;;;1.90;1.00;;;;;;;19.16;75.95;99213.88;106828;1270;24217;-45
2023/07/19 07:04:11;;;;;;;3.20;1.20;;;;;;;19.14;75.33;99217.60;107169;1269;101142;-44
2023/07/19 07:06:46;;;;;;;3.90;1.10;;;;;;;19.07;75.43;99215.40;107532;1269;23354;-45
2023/07/19 07:09:15;;;;;;;2.60;0.90;;;;;;;19.04;75.42;99217.27;107175;1269;25358;-44
2023/07/19 07:11:44;;;;;;;2.90;1.40;;;;;;;19.03;75.43;99218.11;107445;1269;100807;-43
2023/07/19 07:14:16;;;;;;;2.70;1.20;;;;;;;19.00;74.84;99217.27;107416;1269;25371;-45
2023/07/19 07:16:45;;;;;;;3.10;1.10;;;;;;;18.87;74.80;99213.14;107194;1270;99404;-43
2023/07/19 07:19:14;;;;;;;4.10;1.20;;;;;;;18.83;75.00;99217.90;107078;1270;22760;-46
2023/07/19 07:21:43;;;;;;;2.00;1.10;;;;;;;18.85;74.90;99216.31;106652;1263;24192;-45
2023/07/19 07:24:12;;;;;;;3.70;0.90;;;;;;;18.85;74.91;99221.60;107337;1269;99090;-47
2023/07/19 07:26:40;;;;;;;4.40;1.10;;;;;;;18.85;74.84;99222.69;106802;1271;24279;-44
2023/07/19 07:29:16;;;;;;;5.10;1.40;;;;;;;18.82;74.82;99224.16;106821;1269;99117;-45
2023/07/19 07:31:45;;;;;;;2.10;1.10;;;;;;;18.78;74.55;99223.12;106981;1270;25400;-45
2023/07/19 07:34:15;;;;;;;3.00;1.30;;;;;;;18.67;74.70;99221.95;106794;1269;99737;-45
2023/07/19 07:36:44;;;;;;;1.10;0.70;;;;;;;18.52;74.45;99228.70;106871;1267;25395;-44
2023/07/19 07:39:12;;;;;;;4.40;1.20;;;;;;;18.34;74.41;99230.63;106870;1269;25552;-44
2023/07/19 07:41:41;;;;;;;3.30;1.10;;;;;;;18.25;74.71;99227.08;106845;1268;99839;-45
2023/07/19 07:44:09;;;;;;;3.50;1.20;;;;;;;18.20;74.66;99222.77;106793;1269;24309;-44
2023/07/19 07:46:38;;;;;;;3.30;1.00;;;;;;;18.07;74.55;99219.23;106817;1269;100184;-44
2023/07/19 07:49:07;;;;;;;3.10;1.40;;;;;;;18.03;74.69;99218.55;106922;1270;26030;-44
2023/07/19 07:51:39;;;;;;;5.00;1.40;;;;;;;18.10;74.99;99217.06;106897;1273;22538;-44
2023/07/19 07:54:08;;;;;;;7.90;1.20;;;;;;;18.19;74.84;99214.77;106732;1269;99118;-45
2023/07/19 07:56:37;;;;;;;2.40;1.20;;;;;;;18.24;74.92;99218.19;106606;1269;22520;-44
2023/07/19 07:59:05;;;;;;;4.00;0.90;;;;;;;18.29;74.73;99215.27;106730;1269;99197;-45
2023/07/19 08:01:34;;;;;;;2.90;1.00;;;;;;;18.28;74.41;99213.08;106710;1269;132866;-46
2023/07/19 08:04:06;;;;;;;2.50;1.20;;;;;;;18.22;74.48;99215.48;106863;1265;22540;-44
2023/07/19 08:06:38;;;;;;;3.10;1.10;;;;;;;18.19;74.39;99212.60;106844;1253;24275;-46
2023/07/19 08:09:06;;;;;;;3.90;1.10;;;;;;;18.17;74.53;99215.65;106837;1269;22525;-44
2023/07/19 08:11:35;;;;;;;2.80;0.90;;;;;;;18.16;74.40;99215.48;106723;1269;99749;-45
2023/07/19 08:14:03;;;;;;;4.50;1.70;;;;;;;18.14;74.57;99214.14;106752;1269;25337;-43
2023/07/19 08:16:32;;;;;;;4.90;1.20;;;;;;;18.12;74.36;99212.52;109651;1269;99340;-44
2023/07/19 08:19:01;;;;;;;7.10;1.30;;;;;;;18.06;74.47;99210.90;107180;1269;24223;-45
2023/07/19 08:21:30;;;;;;;4.10;1.90;;;;;;;18.05;74.53;99209.20;106675;1269;25243;-46
2023/07/19 08:24:05;;;;;;;2.00;1.00;;;;;;;18.11;74.65;99207.66;106666;1273;99109;-45
2023/07/19 08:26:34;;;;;;;3.80;1.40;;;;;;;18.17;74.59;99205.89;106639;1271;25301;-44
2023/07/19 08:29:02;;;;;;;3.60;1.80;;;;;;;18.24;74.65;99213.02;106798;1273;100197;-45
2023/07/19 08:31:31;;;;;;;4.80;1.10;;;;;;;18.35;74.73;99211.16;106794;1269;25416;-45
2023/07/19 08:34:00;;;;;;;2.80;1.00;;;;;;;18.53;74.89;99205.39;106957;1266;22554;-46
2023/07/19 08:36:29;;;;;;;4.00;1.00;;;;;;;18.66;74.67;99209.23;106782;1269;99339;-45
2023/07/19 08:38:58;;;;;;;2.00;1.20;;;;;;;18.75;74.29;99208.02;106554;1269;25515;-44
2023/07/19 08:41:31;;;;;;;2.80;1.30;;;;;;;18.85;74.45;99209.81;106764;1274;99245;-45
2023/07/19 08:44:00;;;;;;;3.20;1.30;;;;;;;18.98;74.30;99210.02;106828;1269;22517;-44
2023/07/19 08:46:29;;;;;;;3.10;1.30;;;;;;;19.07;74.24;99207.52;106789;1269;99666;-45
2023/07/19 08:48:59;;;;;;;2.40;1.10;;;;;;;19.21;74.29;99201.64;106739;1272;22527;-44
2023/07/19 08:51:28;;;;;;;3.50;1.00;;;;;;;19.29;73.83;99196.44;106941;1269;22523;-45
2023/07/19 08:53:56;;;;;;;2.30;1.20;;;;;;;19.32;73.78;99200.37;106694;1269;99595;-45
2023/07/19 08:56:25;;;;;;;5.40;1.30;;;;;;;19.37;73.62;99196.64;107000;1259;22638;-44
2023/07/19 08:58:53;;;;;;;3.90;1.30;;;;;;;19.29;73.00;99195.73;106736;1273;99407;-44
2023/07/19 09:01:22;;;;;;;3.00;1.60;;;;;;;19.16;73.14;99198.52;108227;1269;25345;-45
2023/07/19 09:03:52;;;;;;;4.50;1.50;;;;;;;19.22;73.86;99197.13;106858;1270;22533;-44
2023/07/19 09:06:25;;;;;;;7.90;1.10;;;;;;;19.36;73.65;99197.33;106820;1265;99140;-45
2023/07/19 09:08:54;;;;;;;3.60;1.30;;;;;;;19.53;73.65;99199.90;106951;1269;22539;-44
2023/07/19 09:11:23;;;;;;;2.40;1.50;;;;;;;19.63;73.35;99195.80;106847;1269;100710;-45
2023/07/19 09:13:53;;;;;;;4.80;1.00;;;;;;;19.68;73.21;99194.23;106961;1269;25567;-46
2023/07/19 09:16:26;;;;;;;3.30;1.20;;;;;;;19.80;73.11;99194.06;106735;1269;99315;-47
2023/07/19 09:19:00;;;;;;;1.60;1.00;;;;;;;19.87;73.05;99194.60;107768;1269;26541;-46
2023/07/19 09:21:36;;;;;;;2.70;1.10;;;;;;;19.93;72.72;99194.24;106826;1272;22520;-44
2023/07/19 09:24:10;;;;;;;2.60;0.90;;;;;;;19.91;72.81;99193.00;106822;1270;100061;-46
2023/07/19 09:26:53;;;;;;;4.40;1.10;;;;;;;19.96;73.02;99193.59;106850;1276;22536;-44
2023/07/19 09:29:28;;;;;;;2.10;0.80;;;;;;;19.87;72.62;99189.70;106796;1269;99615;-45
2023/07/19 09:31:59;;;;;;;6.10;1.40;;;;;;;19.83;72.66;99185.80;106902;1270;22520;-46
2023/07/19 09:34:36;;;;;;;3.20;1.20;;;;;;;19.82;72.69;99185.19;106788;1269;99822;-45
2023/07/19 09:37:05;;;;;;;2.40;0.90;;;;;;;19.76;72.21;99185.11;106871;1269;24078;-44
2023/07/19 09:39:35;;;;;;;1.60;1.10;;;;;;;19.65;72.26;99177.08;106891;1269;25409;-44
2023/07/19 09:42:04;;;;;;;2.40;1.20;;;;;;;19.60;72.55;99179.48;106573;1273;99496;-44
2023/07/19 09:44:34;;;;;;;2.60;1.10;;;;;;;19.71;72.88;99175.96;106866;1269;25270;-44
2023/07/19 09:47:04;;;;;;;1.00;0.80;;;;;;;19.93;72.95;99173.95;106767;1262;99218;-43
2023/07/19 09:49:53;;;;;;;2.00;1.10;;;;;;;20.11;72.43;99171.50;106755;1255;25499;-46
2023/07/19 09:52:25;;;;;;;3.70;1.20;;;;;;;20.17;72.20;99168.47;106548;1272;99335;-43
2023/07/19 09:54:54;;;;;;;2.20;1.00;;;;;;;20.06;71.57;99170.93;106778;1270;25294;-46
2023/07/19 09:57:25;;;;;;;2.30;0.90;;;;;;;19.86;71.45;99170.66;106631;1277;22794;-44
2023/07/19 09:59:54;;;;;;;1.30;0.80;;;;;;;19.66;71.39;99171.50;106699;1272;99621;-45
2023/07/19 10:02:23;;;;;;;4.40;1.30;;;;;;;19.47;71.66;99173.57;106826;1270;25426;-44
2023/07/19 10:04:52;;;;;;;1.70;0.90;;;;;;;19.31;71.70;99169.23;106731;1270;99841;-46
2023/07/19 10:07:25;;;;;;;3.10;0.90;;;;;;;19.15;71.80;99166.17;106773;1271;24675;-44
2023/07/19 10:10:14;;;;;;;2.10;1.10;;;;;;;18.95;71.93;99163.70;106474;1275;99790;-45
2023/07/19 10:12:48;;;;;;;4.30;1.00;;;;;;;18.84;72.32;99161.07;106910;1272;25415;-44
2023/07/19 10:15:18;;;;;;;1.90;1.10;;;;;;;18.76;72.34;99162.30;106857;1269;24670;-46
2023/07/19 10:17:53;;;;;;;3.90;1.10;;;;;;;18.68;72.53;99162.09;106846;1275;99201;-45
2023/07/19 10:20:29;;;;;;;2.40;1.00;;;;;;;18.65;72.45;99160.40;106943;1273;22597;-45
2023/07/19 10:23:02;;;;;;;2.20;1.00;;;;;;;18.58;72.41;99158.95;107088;1269;99125;-44
2023/07/19 10:25:45;;;;;;;3.80;1.30;;;;;;;18.46;72.54;99157.16;107242;1271;24242;-44
2023/07/19 10:29:00;;;;;;;3.50;1.10;;;;;;;18.40;72.92;99156.80;107085;1275;99754;-47
2023/07/19 10:31:36;;;;;;;3.00;1.30;;;;;;;18.39;72.53;99154.44;106112;1278;24228;-44
2023/07/19 10:34:05;;;;;;;2.00;1.00;;;;;;;18.25;72.15;99156.56;106192;1283;22680;-44
2023/07/19 10:36:44;;;;;;;1.60;0.80;;;;;;;18.06;72.17;99157.86;106088;1274;99042;-44
2023/07/19 10:39:12;;;;;;;1.70;0.80;;;;;;;17.94;72.28;99161.90;106312;1281;25308;-44
2023/07/19 10:41:41;;;;;;;3.00;1.10;;;;;;;17.84;72.51;99160.69;106106;1280;99290;-44
2023/07/19 10:44:11;;;;;;;4.20;1.30;;;;;;;17.72;72.67;99162.08;106583;1278;24272;-42
2023/07/19 10:46:42;;;;;;;5.60;1.70;;;;;;;17.58;72.73;99166.02;106254;1279;99880;-44
2023/07/19 10:49:11;;;;;;;1.60;1.00;;;;;;;17.43;73.22;99166.03;106681;1278;24665;-44
2023/07/19 10:52:10;;;;;;;2.60;1.20;;;;;;;17.26;73.20;99173.29;106233;1277;22554;-44
2023/07/19 10:54:54;;;;;;;1.90;1.10;;;;;;;17.00;72.89;99180.45;106147;1280;22547;-43
2023/07/19 10:57:42;;;;;;;1.10;0.80;;;;;;;16.78;73.19;99184.80;106290;1281;22520;-44
2023/07/19 11:00:13;;;;;;;3.10;0.90;;;;;;;16.57;73.15;99187.35;106147;1277;99166;-43
2023/07/19 11:02:47;;;;;;;2.10;1.00;;;;;;;16.35;73.25;99194.20;106244;1275;25434;-44
2023/07/19 11:05:17;;;;;;;2.60;0.90;;;;;;;16.12;73.15;99196.26;106409;1274;100269;-43
2023/07/19 11:07:49;;;;;;;1.90;1.00;;;;;;;15.80;73.32;99194.70;106414;1276;22550;-44
2023/07/19 11:10:18;;;;;;;2.20;1.10;;;;;;;15.50;74.02;99189.72;106826;1269;99361;-43
2023/07/19 11:12:47;;;;;;;7.40;2.10;;;;;;;15.30;74.54;99190.87;106933;1269;25259;-44
2023/07/19 11:15:17;;;;;;;1.90;1.00;;;;;;;15.20;75.08;99190.27;106889;1269;25277;-45
2023/07/19 11:17:52;;;;;;;1.50;0.90;;;;;;;15.14;75.07;99182.50;107437;1272;100125;-44
2023/07/19 11:20:30;;;;;;;3.40;1.00;;;;;;;15.05;75.31;99179.51;107023;1269;22649;-42
2023/07/19 11:23:05;;;;;;;1.90;0.90;;;;;;;15.00;75.76;99178.94;107010;1272;99694;-42
2023/07/19 11:25:38;;;;;;;1.00;1.00;;;;;;;14.95;75.90;99173.01;107131;1269;26491;-45
2023/07/19 11:28:06;;;;;;;2.30;1.10;;;;;;;14.96;75.98;99169.77;106905;1269;22526;-44
2023/07/19 11:30:36;;;;;;;3.90;1.10;;;;;;;15.02;76.35;99173.55;106875;1269;99897;-45
2023/07/19 11:33:26;;;;;;;1.20;0.90;;;;;;;15.09;76.52;99168.27;107601;1269;22532;-44
2023/07/19 11:35:55;;;;;;;2.20;1.00;;;;;;;15.21;76.94;99175.46;106524;1272;102571;-46
2023/07/19 11:38:24;;;;;;;2.30;1.20;;;;;;;15.28;76.92;99177.19;106787;1269;22606;-45
2023/07/19 11:40:53;;;;;;;2.20;1.10;;;;;;;15.28;76.81;99179.63;106862;1270;99277;-44